Time;durP1;ratioP1;P1;durP2;ratioP2;P2;SDS_P1;SDS_P2;PMS_P1;PMS_P2;Temp;Humidity;BMP_temperature;BMP_pressure;BME280_temperature;BME280_humidity;BME280_pressure;Samples;Min_cycle;Max_cycle;Signal;HPM_P1;HPM_P2
2024/04/09 00:00:09;;;;;;;;;;;;;;;11.73;78.41;98095.15;103949;1277;72703;-39
2024/04/09 00:02:36;;;;;;;;;;;;;;;11.68;78.86;98093.66;103996;1277;62162;-38
2024/04/09 00:05:08;;;;;;;;;;;;;;;11.63;79.31;98092.55;104027;1276;62095;-37
2024/04/09 00:07:38;;;;;;;;;;;;;;;11.60;79.66;98094.20;103832;1275;73880;-38
2024/04/09 00:10:08;;;;;;;;;;;;;;;11.58;80.00;98093.60;103936;1279;65245;-40
2024/04/09 00:12:35;;;;;;;;;;;;;;;11.55;80.50;98093.59;103782;1277;72671;-38
2024/04/09 00:15:07;;;;;;;;;;;;;;;11.53;80.71;98094.66;104008;1279;61985;-39
2024/04/09 00:17:44;;;;;;;;;;;;;;;11.50;80.85;98092.67;103841;1279;62059;-37
2024/04/09 00:20:12;;;;;;;;;;;;;;;11.46;81.01;98091.23;103863;1276;75394;-38
2024/04/09 00:22:41;;;;;;;;;;;;;;;11.44;81.23;98091.37;104042;1276;66151;-39
2024/04/09 00:25:09;;;;;;;;;;;;;;;11.39;81.55;98094.55;103894;1277;72470;-39
2024/04/09 00:27:36;;;;;;;;;;;;;;;11.36;81.97;98096.48;104020;1279;62079;-38
2024/04/09 00:30:06;;;;;;;;;;;;;;;11.32;82.25;98094.73;104004;1277;62225;-39
2024/04/09 00:32:34;;;;;;;;;;;;;;;11.27;82.62;98091.91;104069;1276;74351;-39
2024/04/09 00:35:03;;;;;;;;;;;;;;;11.22;82.81;98090.20;103997;1277;66165;-38
2024/04/09 00:37:31;;;;;;;;;;;;;;;11.17;83.14;98093.04;103988;1277;72469;-38
2024/04/09 00:39:58;;;;;;;;;;;;;;;11.11;83.50;98093.44;104000;1279;62184;-38
2024/04/09 00:42:25;;;;;;;;;;;;;;;11.07;83.91;98095.33;103790;1276;62177;-38
2024/04/09 00:44:53;;;;;;;;;;;;;;;11.03;84.30;98095.38;104204;1276;75448;-38
2024/04/09 00:47:22;;;;;;;;;;;;;;;11.00;84.44;98091.77;103877;1277;65860;-39
2024/04/09 00:49:49;;;;;;;;;;;;;;;10.98;84.77;98089.98;104396;1279;72694;-39
2024/04/09 00:52:16;;;;;;;;;;;;;;;10.99;85.02;98092.33;104011;1279;62136;-38
2024/04/09 00:54:44;;;;;;;;;;;;;;;11.00;85.16;98089.80;103658;1277;62175;-38
2024/04/09 00:57:12;;;;;;;;;;;;;;;11.00;85.30;98092.57;103789;1279;75105;-37
2024/04/09 00:59:40;;;;;;;;;;;;;;;10.98;85.45;98089.55;103820;1276;66268;-38
2024/04/09 01:02:07;;;;;;;;;;;;;;;10.94;85.60;98090.19;103818;1276;73565;-38
2024/04/09 01:04:34;;;;;;;;;;;;;;;10.91;85.84;98089.64;103797;1279;62099;-38
2024/04/09 01:07:01;;;;;;;;;;;;;;;10.89;85.99;98086.99;103828;1279;62104;-38
2024/04/09 01:09:28;;;;;;;;;;;;;;;10.88;86.20;98085.31;103805;1279;75768;-38
2024/04/09 01:11:55;;;;;;;;;;;;;;;10.84;86.26;98086.31;103997;1276;65971;-38
2024/04/09 01:14:23;;;;;;;;;;;;;;;10.79;86.52;98084.23;103893;1276;71718;-39
2024/04/09 01:16:51;;;;;;;;;;;;;;;10.74;87.00;98085.55;103853;1279;62092;-38
2024/04/09 01:19:19;;;;;;;;;;;;;;;10.65;87.22;98085.66;103886;1277;62181;-40
2024/04/09 01:21:47;;;;;;;;;;;;;;;10.59;87.63;98085.27;103802;1279;75923;-38
2024/04/09 01:24:14;;;;;;;;;;;;;;;10.56;88.16;98083.00;103984;1279;65347;-38
2024/04/09 01:26:41;;;;;;;;;;;;;;;10.56;88.36;98080.48;104072;1277;72389;-38
2024/04/09 01:29:08;;;;;;;;;;;;;;;10.58;88.45;98081.31;103821;1279;62066;-37
2024/04/09 01:31:35;;;;;;;;;;;;;;;10.63;88.60;98081.62;103812;1277;62196;-38
2024/04/09 01:34:04;;;;;;;;;;;;;;;10.70;88.56;98082.38;103755;1276;75539;-38
2024/04/09 01:36:34;;;;;;;;;;;;;;;10.77;88.13;98079.45;103805;1277;66105;-40
2024/04/09 01:39:01;;;;;;;;;;;;;;;10.90;87.60;98080.30;103749;1276;72439;-40
2024/04/09 01:41:29;;;;;;;;;;;;;;;11.06;86.90;98080.11;103789;1277;62078;-39
2024/04/09 01:43:57;;;;;;;;;;;;;;;11.20;86.35;98081.02;103891;1277;62082;-39
2024/04/09 01:46:24;;;;;;;;;;;;;;;11.27;85.69;98076.52;103941;1277;75311;-39
2024/04/09 01:48:52;;;;;;;;;;;;;;;11.30;85.28;98079.31;104048;1279;65477;-39
2024/04/09 01:51:19;;;;;;;;;;;;;;;11.28;85.13;98078.45;103837;1277;72409;-38
2024/04/09 01:53:49;;;;;;;;;;;;;;;11.19;85.01;98081.58;103741;1279;62056;-37
2024/04/09 01:56:16;;;;;;;;;;;;;;;11.08;85.29;98079.02;104051;1277;62066;-38
2024/04/09 01:58:43;;;;;;;;;;;;;;;10.99;85.54;98079.13;104009;1279;74733;-38
2024/04/09 02:01:10;;;;;;;;;;;;;;;10.93;85.82;98082.23;103971;1277;66489;-38
2024/04/09 02:03:38;;;;;;;;;;;;;;;10.91;86.21;98080.80;103880;1277;72630;-38
2024/04/09 02:06:05;;;;;;;;;;;;;;;10.91;86.38;98080.48;104008;1277;62195;-38
2024/04/09 02:08:33;;;;;;;;;;;;;;;10.91;86.18;98077.33;103936;1277;62769;-38
2024/04/09 02:11:01;;;;;;;;;;;;;;;10.89;86.36;98077.52;103808;1277;75367;-38
2024/04/09 02:13:30;;;;;;;;;;;;;;;10.84;86.42;98077.80;103767;1277;66473;-38
2024/04/09 02:15:58;;;;;;;;;;;;;;;10.82;86.46;98076.38;103880;1279;72896;-38
2024/04/09 02:18:25;;;;;;;;;;;;;;;10.83;86.55;98076.10;103763;1276;62219;-38
2024/04/09 02:20:53;;;;;;;;;;;;;;;10.83;86.53;98077.37;103852;1277;62121;-38
2024/04/09 02:23:20;;;;;;;;;;;;;;;10.85;86.42;98079.23;103830;1277;75270;-38
2024/04/09 02:25:47;;;;;;;;;;;;;;;10.85;86.39;98074.19;103916;1279;65582;-39
2024/04/09 02:28:14;;;;;;;;;;;;;;;10.88;86.41;98076.66;103822;1277;72454;-39
2024/04/09 02:30:41;;;;;;;;;;;;;;;10.88;86.15;98078.06;104033;1279;62068;-39
2024/04/09 02:33:08;;;;;;;;;;;;;;;10.86;86.29;98077.02;104034;1277;62069;-39
2024/04/09 02:35:35;;;;;;;;;;;;;;;10.84;86.33;98078.88;104046;1277;76423;-39
2024/04/09 02:38:02;;;;;;;;;;;;;;;10.79;86.57;98078.31;103968;1279;63805;-38
2024/04/09 02:40:29;;;;;;;;;;;;;;;10.71;86.72;98078.98;103848;1277;71449;-37
2024/04/09 02:42:56;;;;;;;;;;;;;;;10.61;86.83;98081.02;103753;1279;62330;-39
2024/04/09 02:45:23;;;;;;;;;;;;;;;10.52;87.00;98080.48;103875;1276;62181;-38
2024/04/09 02:47:51;;;;;;;;;;;;;;;10.48;87.24;98082.41;103776;1275;75432;-39
2024/04/09 02:50:20;;;;;;;;;;;;;;;10.46;87.62;98089.55;103906;1277;65944;-38
2024/04/09 02:52:49;;;;;;;;;;;;;;;10.46;87.85;98088.93;103912;1277;72639;-38
2024/04/09 02:55:19;;;;;;;;;;;;;;;10.44;88.33;98087.39;103966;1279;62081;-36
2024/04/09 02:57:47;;;;;;;;;;;;;;;10.42;88.48;98083.77;104017;1277;62072;-38
2024/04/09 03:00:19;;;;;;;;;;;;;;;10.41;88.64;98085.23;104045;1279;75408;-37
2024/04/09 03:02:50;;;;;;;;;;;;;;;10.41;88.61;98086.63;103919;1277;66239;-37
2024/04/09 03:05:30;;;;;;;;;;;;;;;10.41;88.90;98087.33;103999;1275;72461;-38
2024/04/09 03:07:58;;;;;;;;;;;;;;;10.37;89.11;98091.75;103779;1277;62720;-38
2024/04/09 03:10:26;;;;;;;;;;;;;;;10.30;89.13;98096.82;103870;1276;62174;-38
2024/04/09 03:12:53;;;;;;;;;;;;;;;10.21;89.33;98098.36;103817;1277;75709;-38
2024/04/09 03:15:20;;;;;;;;;;;;;;;10.15;89.62;98096.92;103994;1277;66260;-39
2024/04/09 03:17:47;;;;;;;;;;;;;;;10.08;89.73;98095.05;103822;1279;72594;-39
2024/04/09 03:20:14;;;;;;;;;;;;;;;10.02;90.19;98088.60;103920;1279;62002;-39
2024/04/09 03:22:41;;;;;;;;;;;;;;;9.96;90.41;98091.12;103994;1277;62109;-39
2024/04/09 03:25:08;;;;;;;;;;;;;;;9.88;90.50;98092.33;104015;1276;75167;-39
2024/04/09 03:27:36;;;;;;;;;;;;;;;9.78;90.96;98094.34;104046;1277;65304;-39
2024/04/09 03:30:04;;;;;;;;;;;;;;;9.72;91.67;98093.98;104132;1277;72480;-39
2024/04/09 03:32:31;;;;;;;;;;;;;;;9.75;92.05;98096.36;103927;1279;62104;-39
2024/04/09 03:34:59;;;;;;;;;;;;;;;9.80;92.24;98099.24;103978;1277;62194;-39
2024/04/09 03:37:26;;;;;;;;;;;;;;;9.88;92.32;98098.30;103874;1279;75265;-37
2024/04/09 03:39:53;;;;;;;;;;;;;;;9.94;92.26;98104.66;104303;1279;66068;-38
2024/04/09 03:42:20;;;;;;;;;;;;;;;9.97;92.56;98104.54;104021;1279;72631;-38
2024/04/09 03:44:47;;;;;;;;;;;;;;;9.99;92.61;98105.85;103953;1279;62081;-38
2024/04/09 03:47:14;;;;;;;;;;;;;;;10.02;92.52;98105.63;103871;1277;62079;-39
2024/04/09 03:49:41;;;;;;;;;;;;;;;9.99;92.26;98104.20;103879;1279;74431;-38
2024/04/09 03:52:08;;;;;;;;;;;;;;;9.94;92.21;98100.77;103892;1277;66069;-38
2024/04/09 03:54:35;;;;;;;;;;;;;;;9.90;92.26;98102.84;103832;1277;72641;-38
2024/04/09 03:57:05;;;;;;;;;;;;;;;9.91;92.69;98100.20;103792;1277;62083;-38
2024/04/09 03:59:33;;;;;;;;;;;;;;;9.97;92.71;98106.52;103771;1277;62111;-38
2024/04/09 04:02:00;;;;;;;;;;;;;;;10.02;92.69;98108.82;103839;1279;76370;-38
2024/04/09 04:04:28;;;;;;;;;;;;;;;10.09;92.69;98110.41;103842;1277;66086;-38
2024/04/09 04:06:55;;;;;;;;;;;;;;;10.17;92.40;98113.18;103939;1277;72632;-38
2024/04/09 04:09:23;;;;;;;;;;;;;;;10.25;92.22;98111.07;103855;1277;62085;-39
2024/04/09 04:11:51;;;;;;;;;;;;;;;10.33;91.90;98112.20;103946;1276;62191;-38
2024/04/09 04:14:18;;;;;;;;;;;;;;;10.39;91.53;98111.75;103907;1277;75416;-38
2024/04/09 04:16:45;;;;;;;;;;;;;;;10.43;91.42;98115.73;103858;1279;65991;-39
2024/04/09 04:19:13;;;;;;;;;;;;;;;10.45;91.32;98113.35;103739;1277;72636;-38
2024/04/09 04:21:40;;;;;;;;;;;;;;;10.49;91.13;98113.36;103912;1276;62200;-39
2024/04/09 04:24:07;;;;;;;;;;;;;;;10.52;90.92;98114.17;103781;1277;62095;-38
2024/04/09 04:26:34;;;;;;;;;;;;;;;10.54;90.75;98113.88;103788;1279;75309;-39
2024/04/09 04:29:02;;;;;;;;;;;;;;;10.56;90.65;98112.95;103960;1279;66252;-39
2024/04/09 04:31:30;;;;;;;;;;;;;;;10.59;90.54;98111.14;103902;1276;72446;-37
2024/04/09 04:33:57;;;;;;;;;;;;;;;10.63;90.32;98114.20;103821;1277;62073;-39
2024/04/09 04:36:25;;;;;;;;;;;;;;;10.66;90.26;98111.58;104036;1279;62146;-37
2024/04/09 04:38:52;;;;;;;;;;;;;;;10.69;90.00;98109.02;104017;1280;75372;-38
2024/04/09 04:41:19;;;;;;;;;;;;;;;10.73;89.88;98110.96;103921;1279;66311;-40
2024/04/09 04:43:46;;;;;;;;;;;;;;;10.76;89.82;98113.27;103750;1277;72901;-39
2024/04/09 04:46:13;;;;;;;;;;;;;;;10.79;89.75;98115.33;103902;1279;62072;-41
2024/04/09 04:48:40;;;;;;;;;;;;;;;10.82;89.65;98112.75;103949;1277;62088;-39
2024/04/09 04:51:08;;;;;;;;;;;;;;;10.84;89.29;98112.41;103844;1277;75449;-39
2024/04/09 04:53:36;;;;;;;;;;;;;;;10.87;89.43;98106.55;103852;1279;65583;-39
2024/04/09 04:56:03;;;;;;;;;;;;;;;10.90;89.36;98109.07;103746;1277;72730;-39
2024/04/09 04:58:30;;;;;;;;;;;;;;;10.92;89.19;98110.33;103959;1277;63667;-39
2024/04/09 05:00:57;;;;;;;;;;;;;;;10.96;89.15;98109.31;103927;1277;62164;-37
2024/04/09 05:03:24;;;;;;;;;;;;;;;10.99;89.21;98106.20;103708;1279;75207;-37
2024/04/09 05:05:52;;;;;;;;;;;;;;;11.04;89.04;98108.77;103563;1277;66827;-37
2024/04/09 05:08:19;;;;;;;;;;;;;;;11.08;89.17;98111.87;103953;1277;72443;-37
2024/04/09 05:10:46;;;;;;;;;;;;;;;11.11;88.96;98113.59;104024;1276;62172;-38
2024/04/09 05:13:13;;;;;;;;;;;;;;;11.14;88.96;98114.09;103982;1277;62123;-37
2024/04/09 05:15:40;;;;;;;;;;;;;;;11.17;88.66;98110.20;103698;1275;75933;-38
2024/04/09 05:18:09;;;;;;;;;;;;;;;11.19;88.81;98110.27;103759;1277;65624;-38
2024/04/09 05:20:39;;;;;;;;;;;;;;;11.22;88.73;98112.73;103937;1277;72729;-36
2024/04/09 05:23:07;;;;;;;;;;;;;;;11.26;88.85;98115.05;103791;1279;62413;-37
2024/04/09 05:25:34;;;;;;;;;;;;;;;11.29;88.98;98112.41;103913;1279;62078;-36
2024/04/09 05:28:02;;;;;;;;;;;;;;;11.34;88.57;98113.90;103643;1275;75263;-37
2024/04/09 05:30:30;;;;;;;;;;;;;;;11.39;88.70;98117.14;103605;1277;66465;-37
2024/04/09 05:32:57;;;;;;;;;;;;;;;11.45;88.48;98117.80;103636;1277;72447;-37
2024/04/09 05:35:26;;;;;;;;;;;;;;;11.49;88.61;98120.67;103546;1277;62785;-38
2024/04/09 05:37:53;;;;;;;;;;;;;;;11.56;88.48;98123.52;103717;1279;62091;-37
2024/04/09 05:40:20;;;;;;;;;;;;;;;11.63;88.37;98115.95;103634;1276;76196;-37
2024/04/09 05:42:47;;;;;;;;;;;;;;;11.69;87.90;98119.14;103481;1277;66161;-37
2024/04/09 05:45:15;;;;;;;;;;;;;;;11.76;87.88;98118.98;104865;1276;72613;-37
2024/04/09 05:47:43;;;;;;;;;;;;;;;11.83;87.80;98120.31;104285;1279;62178;-39
2024/04/09 05:50:10;;;;;;;;;;;;;;;11.90;87.69;98117.66;103784;1279;62194;-38
2024/04/09 05:52:37;;;;;;;;;;;;;;;11.96;87.45;98113.89;103872;1279;75309;-39
2024/04/09 05:55:08;;;;;;;;;;;;;;;12.03;87.14;98119.41;103647;1279;67138;-37
2024/04/09 05:57:38;;;;;;;;;;;;;;;12.11;86.95;98120.29;103871;1277;71440;-37
2024/04/09 06:00:11;;;;;;;;;;;;;;;12.19;86.99;98119.98;103707;1277;62027;-37
2024/04/09 06:02:45;;;;;;;;;;;;;;;12.26;86.33;98118.48;103841;1277;62174;-39
2024/04/09 06:05:12;;;;;;;;;;;;;;;12.35;86.01;98123.17;103841;1275;77357;-37
2024/04/09 06:07:39;;;;;;;;;;;;;;;12.43;85.55;98119.85;103659;1279;66351;-37
2024/04/09 06:10:06;;;;;;;;;;;;;;;12.52;85.52;98123.90;103521;1277;72621;-41
2024/04/09 06:12:34;;;;;;;;;;;;;;;12.63;84.80;98122.39;103846;1277;63347;-39
2024/04/09 06:15:02;;;;;;;;;;;;;;;12.77;84.30;98122.27;103952;1277;62164;-37
2024/04/09 06:17:30;;;;;;;;;;;;;;;12.91;84.23;98124.44;103644;1277;75992;-38
2024/04/09 06:19:58;;;;;;;;;;;;;;;13.07;83.54;98122.50;103726;1277;66450;-37
2024/04/09 06:22:26;;;;;;;;;;;;;;;13.23;83.45;98123.06;103692;1277;73042;-37
2024/04/09 06:24:53;;;;;;;;;;;;;;;13.39;82.78;98121.60;103961;1277;62158;-36
2024/04/09 06:27:20;;;;;;;;;;;;;;;13.52;82.39;98120.31;103845;1276;62112;-39
2024/04/09 06:29:47;;;;;;;;;;;;;;;13.65;81.61;98117.20;103495;1279;75431;-40
2024/04/09 06:32:15;;;;;;;;;;;;;;;13.78;81.03;98118.40;103602;1277;67204;-38
2024/04/09 06:34:42;;;;;;;;;;;;;;;13.89;80.27;98114.64;103575;1277;72739;-37
2024/04/09 06:37:09;;;;;;;;;;;;;;;13.98;79.76;98113.54;104583;1279;62568;-39
2024/04/09 06:39:39;;;;;;;;;;;;;;;14.06;79.50;98114.51;103887;1277;62181;-38
2024/04/09 06:42:07;;;;;;;;;;;;;;;14.16;79.63;98114.70;103527;1276;78183;-40
2024/04/09 06:44:34;;;;;;;;;;;;;;;14.28;79.54;98117.91;107541;1277;64633;-39
2024/04/09 06:47:01;;;;;;;;;;;;;;;14.39;79.34;98116.64;104331;1279;72696;-39
2024/04/09 06:49:29;;;;;;;;;;;;;;;14.50;78.91;98114.30;105462;1276;62091;-40
2024/04/09 06:51:56;;;;;;;;;;;;;;;14.56;78.47;98105.98;103365;1279;62175;-40
2024/04/09 06:54:23;;;;;;;;;;;;;;;14.59;78.51;98110.20;103496;1277;74641;-41
2024/04/09 06:56:50;;;;;;;;;;;;;;;14.64;78.73;98111.91;105390;1279;67538;-38
2024/04/09 06:59:17;;;;;;;;;;;;;;;14.71;78.56;98113.54;103429;1277;73233;-38
2024/04/09 07:01:44;;;;;;;;;;;;;;;14.78;78.52;98117.05;103616;1282;62044;-39
2024/04/09 07:04:12;;;;;;;;;;;;;;;14.86;78.29;98112.50;103631;1277;62090;-38
2024/04/09 07:06:40;;;;;;;;;;;;;;;14.94;78.55;98110.41;104085;1279;76949;-41
2024/04/09 07:09:07;;;;;;;;;;;;;;;15.08;78.28;98114.27;103607;1279;66139;-39
2024/04/09 07:11:34;;;;;;;;;;;;;;;15.18;77.68;98110.03;103726;1277;72768;-38
2024/04/09 07:14:01;;;;;;;;;;;;;;;15.27;77.21;98113.36;103729;1280;62062;-39
2024/04/09 07:16:29;;;;;;;;;;;;;;;15.34;76.52;98112.83;103893;1277;62825;-36
2024/04/09 07:18:56;;;;;;;;;;;;;;;15.42;76.16;98110.57;103575;1279;75938;-38
2024/04/09 07:21:23;;;;;;;;;;;;;;;15.53;75.75;98105.48;103850;1279;65927;-36
2024/04/09 07:23:50;;;;;;;;;;;;;;;15.68;75.23;98099.02;103534;1281;72691;-39
2024/04/09 07:26:19;;;;;;;;;;;;;;;15.84;74.60;98097.26;103786;1279;62187;-37
2024/04/09 07:28:46;;;;;;;;;;;;;;;16.03;73.79;98101.08;104393;1277;62193;-36
2024/04/09 07:31:15;;;;;;;;;;;;;;;16.21;72.82;98101.66;103465;1280;75437;-38
2024/04/09 07:33:43;;;;;;;;;;;;;;;16.37;72.18;98102.81;104557;1279;64444;-39
2024/04/09 07:36:10;;;;;;;;;;;;;;;16.52;71.33;98102.64;103392;1282;72712;-37
2024/04/09 07:38:37;;;;;;;;;;;;;;;16.62;70.36;98102.42;103643;1277;62213;-39
2024/04/09 07:41:04;;;;;;;;;;;;;;;16.72;69.95;98105.44;103394;1276;62072;-39
2024/04/09 07:43:31;;;;;;;;;;;;;;;16.83;69.33;98103.95;103588;1280;76481;-42
2024/04/09 07:46:04;;;;;;;;;;;;;;;16.92;68.41;98103.85;103665;1279;66198;-37
2024/04/09 07:48:32;;;;;;;;;;;;;;;17.00;67.57;98095.94;103898;1276;73406;-39
2024/04/09 07:51:00;;;;;;;;;;;;;;;17.08;66.69;98095.33;103670;1276;62008;-38
2024/04/09 07:53:27;;;;;;;;;;;;;;;17.17;66.57;98096.92;104275;1279;62177;-38
2024/04/09 07:55:54;;;;;;;;;;;;;;;17.26;65.48;98093.85;103395;1280;76507;-39
2024/04/09 07:58:22;;;;;;;;;;;;;;;17.34;65.01;98092.29;103508;1283;65915;-37
2024/04/09 08:00:50;;;;;;;;;;;;;;;17.43;64.61;98088.73;103617;1282;72434;-37
2024/04/09 08:03:18;;;;;;;;;;;;;;;17.54;64.49;98086.38;103855;1281;62161;-38
2024/04/09 08:05:46;;;;;;;;;;;;;;;17.66;63.79;98085.80;103525;1282;62275;-38
2024/04/09 08:08:15;;;;;;;;;;;;;;;17.78;63.35;98084.20;103704;1275;76161;-39
2024/04/09 08:10:43;;;;;;;;;;;;;;;17.91;62.90;98087.98;103610;1280;67509;-39
2024/04/09 08:13:11;;;;;;;;;;;;;;;18.04;62.36;98084.88;105094;1279;73017;-38
2024/04/09 08:15:38;;;;;;;;;;;;;;;18.18;61.79;98082.09;103665;1282;62118;-40
2024/04/09 08:18:05;;;;;;;;;;;;;;;18.31;60.48;98079.73;103885;1283;62092;-42
2024/04/09 08:20:34;;;;;;;;;;;;;;;18.39;59.12;98081.84;103699;1275;75457;-42
2024/04/09 08:23:01;;;;;;;;;;;;;;;18.46;58.14;98078.20;103831;1280;66337;-41
2024/04/09 08:25:29;;;;;;;;;;;;;;;18.51;57.59;98076.69;103908;1277;73257;-43
2024/04/09 08:27:57;;;;;;;;;;;;;;;18.57;56.65;98076.95;103816;1280;62108;-42
2024/04/09 08:30:26;;;;;;;;;;;;;;;18.64;56.28;98074.61;103814;1279;62101;-41
2024/04/09 08:32:54;;;;;;;;;;;;;;;18.69;56.25;98075.02;103788;1279;75562;-39
2024/04/09 08:35:22;;;;;;;;;;;;;;;18.80;56.52;98074.02;103797;1279;66447;-39
2024/04/09 08:37:49;;;;;;;;;;;;;;;18.94;55.81;98072.07;103815;1277;71915;-41
2024/04/09 08:40:18;;;;;;;;;;;;;;;19.04;55.30;98068.10;104611;1277;62132;-42
2024/04/09 08:42:48;;;;;;;;;;;;;;;19.11;54.87;98063.80;103868;1277;62110;-41
2024/04/09 08:45:15;;;;;;;;;;;;;;;19.22;54.65;98065.27;103868;1277;75308;-46
2024/04/09 08:47:43;;;;;;;;;;;;;;;19.32;54.61;98061.38;103836;1280;67098;-40
2024/04/09 08:50:12;;;;;;;;;;;;;;;19.42;54.77;98058.27;103764;1279;73704;-41
2024/04/09 08:52:40;;;;;;;;;;;;;;;19.52;54.73;98061.10;103756;1280;62117;-41
2024/04/09 08:55:08;;;;;;;;;;;;;;;19.58;54.87;98059.16;103642;1280;62155;-40
2024/04/09 08:57:35;;;;;;;;;;;;;;;19.64;55.68;98049.24;103816;1289;75752;-40
2024/04/09 09:00:05;;;;;;;;;;;;;;;19.73;55.28;98046.79;103803;1280;67099;-43
2024/04/09 09:02:37;;;;;;;;;;;;;;;19.81;55.03;98046.05;103734;1279;73000;-40
2024/04/09 09:05:04;;;;;;;;;;;;;;;19.88;54.73;98043.23;103842;1282;62094;-39
2024/04/09 09:07:32;;;;;;;;;;;;;;;19.97;55.16;98042.36;103703;1276;62120;-42
2024/04/09 09:10:00;;;;;;;;;;;;;;;20.10;54.47;98042.85;103918;1282;76132;-39
2024/04/09 09:12:27;;;;;;;;;;;;;;;20.20;53.94;98043.94;103866;1279;65136;-39
2024/04/09 09:15:00;;;;;;;;;;;;;;;20.24;53.97;98044.25;104167;1279;73510;-40
2024/04/09 09:18:45;;;;;;;;;;;;;;;20.38;54.22;98043.48;103354;1281;62095;-41
2024/04/09 09:21:13;;;;;;;;;;;;;;;20.50;53.93;98044.70;103235;1280;62408;-45
2024/04/09 09:23:40;;;;;;;;;;;;;;;20.63;53.28;98043.38;103075;1287;76291;-48
2024/04/09 09:26:08;;;;;;;;;;;;;;;20.74;53.15;98037.00;103254;1285;67168;-51
2024/04/09 09:28:35;;;;;;;;;;;;;;;20.82;52.47;98035.23;103520;1280;73470;-51
2024/04/09 09:31:03;;;;;;;;;;;;;;;20.87;52.70;98034.03;104775;1280;62177;-37
2024/04/09 09:33:30;;;;;;;;;;;;;;;20.97;52.39;98030.90;103457;1285;62146;-41
2024/04/09 09:35:59;;;;;;;;;;;;;;;21.10;51.94;98029.97;103348;1280;75731;-47
2024/04/09 09:38:26;;;;;;;;;;;;;;;21.23;50.20;98025.71;103287;1286;67617;-40
2024/04/09 09:40:54;;;;;;;;;;;;;;;21.30;49.51;98023.61;103282;1284;73833;-50
2024/04/09 09:43:22;;;;;;;;;;;;;;;21.35;49.10;98026.74;103295;1279;62024;-43
2024/04/09 09:45:50;;;;;;;;;;;;;;;21.41;48.90;98022.49;103235;1285;62283;-43
2024/04/09 09:48:20;;;;;;;;;;;;;;;21.50;49.37;98022.44;103451;1285;74450;-45
2024/04/09 09:50:48;;;;;;;;;;;;;;;21.61;47.82;98018.69;103262;1285;66821;-38
2024/04/09 09:53:19;;;;;;;;;;;;;;;21.70;46.89;98018.23;103611;1283;73636;-42
2024/04/09 09:55:49;;;;;;;;;;;;;;;21.75;47.03;98014.09;103316;1282;62130;-40
2024/04/09 09:58:19;;;;;;;;;;;;;;;21.81;46.46;98015.24;103635;1279;62114;-42
2024/04/09 10:00:48;;;;;;;;;;;;;;;21.93;46.31;98018.02;103520;1285;76769;-39
2024/04/09 10:03:15;;;;;;;;;;;;;;;22.04;45.05;98012.29;103337;1289;65640;-40
2024/04/09 10:05:43;;;;;;;;;;;;;;;22.10;44.50;98011.85;103398;1285;72610;-41
2024/04/09 10:08:26;;;;;;;;;;;;;;;22.16;44.21;98009.39;103271;1280;62249;-42
2024/04/09 10:10:55;;;;;;;;;;;;;;;22.24;43.16;98004.83;103252;1286;62220;-40
2024/04/09 10:13:25;;;;;;;;;;;;;;;22.32;43.76;98006.84;103579;1282;75574;-48
2024/04/09 10:15:56;;;;;;;;;;;;;;;22.46;43.46;98005.57;103190;1285;65556;-43
2024/04/09 10:18:43;;;;;;;;;;;;;;;22.57;42.41;98006.37;105949;1279;73672;-40
2024/04/09 10:21:13;;;;;;;;;;;;;;;22.70;42.64;98008.45;103651;1283;62051;-39
2024/04/09 10:23:41;;;;;;;;;;;;;;;22.79;41.09;98007.40;103557;1279;62126;-42
2024/04/09 10:26:11;;;;;;;;;;;;;;;22.84;40.98;98001.93;103670;1282;75963;-40
2024/04/09 10:28:38;;;;;;;;;;;;;;;22.89;40.58;98002.39;103175;1280;66986;-41
2024/04/09 10:31:08;;;;;;;;;;;;;;;22.96;40.43;98001.30;103642;1279;72720;-42
2024/04/09 10:33:35;;;;;;;;;;;;;;;23.07;40.24;98002.00;103346;1283;62194;-38
2024/04/09 10:36:03;;;;;;;;;;;;;;;23.21;39.61;98000.29;103246;1280;62101;-41
2024/04/09 10:38:31;;;;;;;;;;;;;;;23.33;39.06;97997.55;103453;1283;77005;-40
2024/04/09 10:41:00;;;;;;;;;;;;;;;23.48;38.59;97996.56;103304;1283;67151;-38
2024/04/09 10:43:28;;;;;;;;;;;;;;;23.63;38.61;97993.28;103634;1280;72536;-38
2024/04/09 10:45:56;;;;;;;;;;;;;;;23.72;38.52;97990.88;103547;1283;62928;-39
2024/04/09 10:48:39;;;;;;;;;;;;;;;23.85;37.97;97990.08;103401;1279;62065;-40
2024/04/09 10:51:06;;;;;;;;;;;;;;;23.96;38.60;97987.83;103425;1280;76394;-39
2024/04/09 10:53:36;;;;;;;;;;;;;;;24.08;38.43;97983.73;103134;1283;65765;-41
2024/04/09 10:56:03;;;;;;;;;;;;;;;24.20;37.46;97981.80;105727;1279;73392;-39
2024/04/09 10:58:31;;;;;;;;;;;;;;;24.25;37.73;97983.49;106962;1279;60087;-41
2024/04/09 11:00:58;;;;;;;;;;;;;;;24.22;37.64;97979.15;106142;1279;60918;-39
2024/04/09 11:03:26;;;;;;;;;;;;;;;24.23;38.25;97973.92;103553;1282;76270;-41
2024/04/09 11:05:54;;;;;;;;;;;;;;;24.46;37.89;97973.14;103544;1278;66159;-37
2024/04/09 11:08:24;;;;;;;;;;;;;;;24.90;37.55;97968.16;103163;1283;72564;-37
2024/04/09 11:10:51;;;;;;;;;;;;;;;25.43;36.94;97961.56;103275;1283;62267;-38
2024/04/09 11:13:19;;;;;;;;;;;;;;;25.94;35.45;97957.10;103133;1280;62297;-40
2024/04/09 11:15:45;;;;;;;;;;;;;;;26.33;34.20;97957.27;103589;1279;75301;-39
2024/04/09 11:18:19;;;;;;;;;;;;;;;26.66;33.76;97962.71;103107;1279;207205;-41
2024/04/09 11:20:53;;;;;;;;;;;;;;;27.02;33.10;97960.65;103509;1279;72727;-43
2024/04/09 11:23:22;;;;;;;;;;;;;;;27.29;33.06;97956.05;103371;1282;62277;-41
2024/04/09 11:29:49;;;;;;;;;;;;;;;27.64;32.33;97956.58;103231;1284;76859;-41
2024/04/09 11:32:17;;;;;;;;;;;;;;;27.92;31.66;97952.07;103287;1285;67182;-42
2024/04/09 11:34:45;;;;;;;;;;;;;;;28.41;31.23;97947.56;104014;1279;72692;-44
2024/04/09 11:37:13;;;;;;;;;;;;;;;28.94;30.02;97945.67;103858;1280;62191;-42
2024/04/09 11:39:45;;;;;;;;;;;;;;;29.12;29.53;97943.80;103999;1282;61217;-38
2024/04/09 11:42:12;;;;;;;;;;;;;;;29.33;29.30;97945.11;103422;1282;75494;-41
2024/04/09 11:44:39;;;;;;;;;;;;;;;29.60;28.70;97940.95;103970;1282;66403;-42
2024/04/09 11:47:06;;;;;;;;;;;;;;;30.00;28.55;97940.66;103229;1279;73858;-39
2024/04/09 11:49:33;;;;;;;;;;;;;;;30.35;28.24;97939.05;103598;1285;62202;-42
2024/04/09 11:52:00;;;;;;;;;;;;;;;30.44;27.48;97939.30;103289;1280;62132;-42
2024/04/09 11:54:27;;;;;;;;;;;;;;;30.18;27.71;97939.52;103269;1280;75955;-42
2024/04/09 11:56:55;;;;;;;;;;;;;;;30.08;27.86;97941.65;103604;1282;66277;-41
2024/04/09 11:59:23;;;;;;;;;;;;;;;30.30;27.36;97934.17;103157;1285;73257;-42
2024/04/09 12:01:50;;;;;;;;;;;;;;;30.57;26.95;97931.00;103207;1283;62155;-39
2024/04/09 12:04:17;;;;;;;;;;;;;;;30.73;27.05;97931.34;103301;1279;62168;-45
2024/04/09 12:06:45;;;;;;;;;;;;;;;30.87;26.73;97931.77;103292;1279;75733;-40
2024/04/09 12:09:12;;;;;;;;;;;;;;;31.07;26.88;97932.64;103548;1280;67277;-41
2024/04/09 12:11:39;;;;;;;;;;;;;;;31.23;26.28;97930.17;103344;1285;72667;-39
2024/04/09 12:14:06;;;;;;;;;;;;;;;31.62;25.53;97929.80;103734;1284;62248;-41
2024/04/09 12:16:34;;;;;;;;;;;;;;;31.44;24.26;97928.21;103464;1284;62297;-40
2024/04/09 12:19:01;;;;;;;;;;;;;;;30.91;24.72;97919.46;103613;1280;76372;-39
2024/04/09 12:21:28;;;;;;;;;;;;;;;30.73;25.54;97918.87;103352;1279;67055;-40
2024/04/09 12:23:55;;;;;;;;;;;;;;;30.71;25.95;97919.14;103118;1280;72667;-39
2024/04/09 12:26:23;;;;;;;;;;;;;;;30.81;25.67;97917.80;103313;1285;63191;-40
2024/04/09 12:28:57;;;;;;;;;;;;;;;30.70;25.79;97920.65;103249;1279;62097;-40
2024/04/09 12:31:24;;;;;;;;;;;;;;;30.60;26.41;97912.94;103299;1279;73302;-40
2024/04/09 12:33:51;;;;;;;;;;;;;;;30.68;26.31;97910.42;103828;1281;66306;-41
2024/04/09 12:36:18;;;;;;;;;;;;;;;30.73;25.58;97909.05;103408;1280;73139;-43
2024/04/09 12:38:45;;;;;;;;;;;;;;;30.72;25.35;97910.74;103527;1283;62124;-42
2024/04/09 12:41:12;;;;;;;;;;;;;;;30.59;25.58;97906.01;103257;1282;62166;-42
2024/04/09 12:43:39;;;;;;;;;;;;;;;30.36;25.60;97906.14;103296;1278;75993;-40
2024/04/09 12:46:06;;;;;;;;;;;;;;;30.23;25.29;97901.55;103911;1282;65873;-43